Antelope, Texas
Current Conditions -  °F | °C
As of 3:10 AM on Wednesday 22 Oct 2014 (Local Time) from KRPH Reporting Station
Clear Clear  
Wind Chill: 16°   Ceiling: Unl
Heat Index: 16°   Visibility: 10mi
Dew Point: 13°   Wind: 5mph
Humidity: 80%   Direction: 120°ESE
Pressure: 30.06"   Gusts: NA
Location:  33.4259°N, 98.383°W
Report Text: KRPH 220810Z AUTO 12004KT 10SM CLR 16/13 A3006 RMK AO2 T01600125
Loading
Personal Weather Stations






























Interactive Weather Map
Tropical Storm Tracking
New forecast layout! Learn more

10-Day Weather Forecast

Advertisements
Track Severe Weather on mobile